Date,TemperatureHighF,TemperatureAvgF,TemperatureLowF,DewpointHighF,DewpointAvgF,DewpointLowF,HumidityHigh,HumidityAvg,HumidityLow,PressureMaxIn,PressureMinIn,WindSpeedMaxMPH,WindSpeedAvgMPH,GustSpeedMaxMPH,PrecipitationSumIn
2013-4-1,62,54,46,52,49,45,97,84,62,30.15,30.04,9,3,17,0.00
2013-4-2,74,60,48,55,50,43,99,75,46,30.09,29.97,8,2,13,0.00
2013-4-3,81,64,51,55,49,39,92,62,25,30.06,29.96,6,2,10,0.00
2013-4-4,72,59,50,56,52,48,99,81,48,30.07,29.97,9,2,14,0.00
2013-4-5,72,59,51,57,52,47,99,81,41,30.06,29.96,7,2,13,0.00
2013-4-6,76,65,52,57,48,37,97,56,36,30.04,29.91,15,6,27,0.00
2013-4-7,73,63,59,54,44,38,81,51,30,29.93,29.76,25,12,41,0.00
2013-4-8,60,55,51,52,41,33,97,64,39,29.83,29.63,17,6,29,0.00
2013-4-9,72,60,50,36,29,22,45,32,17,30.01,29.82,11,6,22,0.00
2013-4-10,80,67,57,34,26,19,36,22,12,30.09,29.94,11,6,22,0.00
2013-4-11,76,64,54,47,38,33,49,39,26,29.97,29.74,5,2,10,0.00
2013-4-12,79,62,50,58,53,48,97,75,46,29.86,29.75,4,1,0,0.00
2013-4-13,65,56,50,56,52,50,99,90,70,29.88,29.80,4,1,5,0.00
2013-4-14,63,54,49,53,50,49,99,89,67,29.87,29.79,4,1,7,0.00
2013-4-15,59,54,49,51,49,45,96,85,69,29.87,29.80,5,2,9,0.00
2013-4-16,61,53,45,45,35,27,91,52,33,29.99,29.83,16,5,28,0.00
2013-4-17,67,58,48,30,24,20,43,29,17,30.14,29.98,15,8,22,0.00
2013-4-18,74,63,54,25,19,12,30,19,10,30.22,30.10,17,8,31,0.00
2013-4-19,83,70,60,34,24,16,26,18,11,30.15,29.94,15,6,21,0.00
2013-4-20,90,76,66,47,37,28,34,25,15,29.95,29.83,16,6,29,0.00
2013-4-21,85,70,56,51,44,38,81,41,22,29.95,29.87,5,1,9,0.00
2013-4-22,78,61,49,56,51,46,100,75,37,29.95,29.83,4,1,9,0.00
2013-4-23,80,62,50,55,52,49,97,73,40,29.94,29.82,3,1,6,0.00
2013-4-24,58,54,52,54,52,49,98,91,84,29.97,29.86,4,1,8,0.00
2013-4-25,71,59,51,51,49,47,92,72,49,30.09,29.94,5,2,11,0.00
2013-4-26,79,64,52,55,50,45,83,63,42,30.13,30.06,5,1,8,0.00
2013-4-27,86,71,56,57,50,44,85,51,25,30.12,29.94,7,2,12,0.00
2013-4-28,88,68,54,62,56,50,90,67,39,29.96,29.80,4,1,9,0.00
2013-4-29,81,64,52,60,55,52,99,75,45,29.85,29.74,4,1,10,0.00
2013-4-30,69,59,53,56,54,51,99,84,63,29.87,29.78,4,2,11,0.00